Aeroporto :
LOGIN :

Iscrizione | Disclaimer

   EN    FR    IT 

 










Sommario :    VFR   VFR Marginale   IFR   IFR Intensivo   IFR Molto Intensivo
Visibilità : 
Base nubi : 
>= 8 km
>= 3000ft
5 / 8 km
1000 / 3000 ft
1500m / 5 km
500 / 1000 ft
800 / 1500m
200 / 500 ft
< 800m
< 200 ft
Simboli :   Temporali  Nebbia  Neve Forte  Precipitazioni Forti  Vento > 20 kt
SIGMETs :   Varie  Temporali  Ghiacco  Turbolenza  Onda orograficha  Ceneri Vulcaniche






- Altitudine del aeroporto : 376 ft


LHKE - Kecskemét

ULTIMO METAR :
  • 221945Z 20006KT 170V230 CAVOK 05/M02 Q1027 R12/01//95 NOSIG RMK BLU

METARs OBSOLETI :
  • 221915Z 20006KT 170V230 CAVOK 05/M03 Q1028 R12/01//95 NOSIG RMK BLU
  • 221845Z 20006KT CAVOK 05/M03 Q1027 R12/01//95 NOSIG RMK BLU
  • 221815Z 20004KT CAVOK 06/M03 Q1028 R12/01//95 NOSIG RMK BLU
  • 221745Z 20006KT CAVOK 06/M03 Q1028 R12/01//95 NOSIG RMK BLU
  • 221715Z 19006KT CAVOK 07/M03 Q1028 R12/01//95 NOSIG RMK BLU

TAF TAF LHKE
Valido dal 22 a 18 ore il 23 a 03 ore UTC


221715Z 2218/2303 21008KT CAVOK



MetMap, La meteo Aeronautica in un colpo d'occhio ! - Copyright ORBIFLY Dicembre 2007 - Disclaimer

ORBIFLY MET'MAP TEAM :

Programmazione e sviluppo : Alexandra Zaïnal
Concezione : Baudouin d'Aumeries
Aiuto per la programmazione : Marc-Olivier Méhu
Supporto tecnico e logistico : Manuel Goepfert
Aiuto per la traduzione : Arnaldo La Scala

Contatto : metmap@orbifly.com




FONTI E CREDITI :

   NOAA